createdAt,value
2023-03-22T00:02:59.109Z,12.30
2023-03-22T00:07:08.016Z,12.30
2023-03-22T00:11:16.912Z,12.30
2023-03-22T00:15:25.946Z,12.30
2023-03-22T00:19:38.069Z,12.30
2023-03-22T00:23:47.193Z,12.30
2023-03-22T00:27:56.739Z,12.30
2023-03-22T00:32:05.812Z,12.30
2023-03-22T00:36:16.269Z,12.30
2023-03-22T00:40:25.429Z,12.30
2023-03-22T00:44:34.438Z,12.30
2023-03-22T00:48:43.330Z,12.30
2023-03-22T00:52:54.387Z,12.30
2023-03-22T00:57:03.303Z,12.30
2023-03-22T01:01:14.367Z,12.20
2023-03-22T01:05:25.093Z,12.30
2023-03-22T01:09:36.013Z,12.30
2023-03-22T01:13:45.843Z,12.30
2023-03-22T01:17:54.813Z,12.30
2023-03-22T01:22:03.995Z,12.30
2023-03-22T01:26:14.439Z,12.30
2023-03-22T01:30:23.296Z,12.30
2023-03-22T01:34:32.613Z,12.30
2023-03-22T01:38:41.624Z,12.30
2023-03-22T01:42:51.964Z,12.30
2023-03-22T01:47:01.035Z,12.30
2023-03-22T01:51:13.222Z,12.40
2023-03-22T01:55:23.033Z,12.40
2023-03-22T01:59:33.464Z,12.30
2023-03-22T02:03:49.892Z,12.40
2023-03-22T02:07:58.845Z,12.40
2023-03-22T02:12:18.869Z,12.30
2023-03-22T02:16:40.488Z,12.30
2023-03-22T02:21:14.467Z,12.30
2023-03-22T02:25:48.556Z,12.30
2023-03-22T02:30:09.424Z,12.30
2023-03-22T02:34:43.032Z,12.30
2023-03-22T02:39:24.820Z,12.30
2023-03-22T02:43:39.394Z,12.30
2023-03-22T02:47:57.664Z,12.30
2023-03-22T02:52:17.806Z,12.30
2023-03-22T02:56:32.945Z,12.30
2023-03-22T03:00:44.367Z,12.30
2023-03-22T03:04:55.164Z,12.30
2023-03-22T03:09:06.539Z,12.30
2023-03-22T03:13:18.218Z,12.30
2023-03-22T03:17:40.090Z,12.30
2023-03-22T03:21:57.650Z,12.20
2023-03-22T03:26:15.148Z,12.20
2023-03-22T03:30:32.245Z,12.20
2023-03-22T03:34:49.793Z,12.20
2023-03-22T03:38:59.983Z,12.20
2023-03-22T03:43:10.291Z,12.20
2023-03-22T03:47:21.388Z,12.20
2023-03-22T03:51:30.442Z,12.20
2023-03-22T03:55:39.430Z,12.20
2023-03-22T03:59:48.330Z,12.20
2023-03-22T04:03:58.620Z,12.30
2023-03-22T04:08:07.795Z,12.30
2023-03-22T04:12:16.823Z,12.20
2023-03-22T04:16:25.885Z,12.10
2023-03-22T04:20:36.352Z,12.00
2023-03-22T04:24:50.249Z,12.00
2023-03-22T04:28:59.811Z,12.00
2023-03-22T04:33:09.025Z,12.10
2023-03-22T04:37:19.773Z,12.10
2023-03-22T04:41:30.896Z,12.10
2023-03-22T04:45:42.352Z,12.20
2023-03-22T04:49:51.186Z,12.20
2023-03-22T04:54:01.886Z,12.20
2023-03-22T04:58:10.715Z,12.30
2023-03-22T05:02:19.720Z,12.30
2023-03-22T05:06:28.772Z,12.30
2023-03-22T05:10:42.724Z,12.30
2023-03-22T05:14:51.657Z,12.30
2023-03-22T05:19:02.680Z,12.30
2023-03-22T05:23:11.831Z,12.30
2023-03-22T05:27:31.469Z,12.40
2023-03-22T05:31:40.674Z,12.30
2023-03-22T05:35:50.285Z,12.30
2023-03-22T05:39:59.051Z,12.30
2023-03-22T05:44:09.530Z,12.40
2023-03-22T05:48:18.908Z,12.40
2023-03-22T05:52:27.937Z,12.40
2023-03-22T05:56:37.175Z,12.30
2023-03-22T06:00:49.920Z,12.40
2023-03-22T06:04:58.789Z,12.30
2023-03-22T06:09:16.863Z,12.40
2023-03-22T06:13:26.551Z,12.40
2023-03-22T06:17:38.087Z,12.40
2023-03-22T06:21:46.907Z,12.40
2023-03-22T06:25:55.853Z,12.40
2023-03-22T06:30:05.228Z,12.40
2023-03-22T06:34:15.700Z,12.40
2023-03-22T06:38:24.655Z,12.40
2023-03-22T06:42:34.128Z,12.40
2023-03-22T06:46:43.214Z,12.40
2023-03-22T06:50:53.701Z,12.50
2023-03-22T06:55:02.574Z,12.50
2023-03-22T06:59:11.395Z,12.50
2023-03-22T07:03:20.681Z,12.50
2023-03-22T07:07:30.989Z,12.50
2023-03-22T07:11:39.981Z,12.50
2023-03-22T07:15:49.075Z,12.50
2023-03-22T07:19:58.025Z,12.50
2023-03-22T07:24:09.508Z,12.50
2023-03-22T07:28:18.997Z,12.50
2023-03-22T07:32:29.211Z,12.50
2023-03-22T07:36:38.579Z,12.50
2023-03-22T07:40:50.937Z,12.50
2023-03-22T07:44:59.995Z,12.50
2023-03-22T07:49:09.060Z,12.50
2023-03-22T07:53:18.006Z,12.60
2023-03-22T07:57:28.594Z,12.50
2023-03-22T08:01:39.989Z,12.60
2023-03-22T08:05:50.003Z,12.60
2023-03-22T08:09:59.317Z,12.50
2023-03-22T08:14:10.324Z,12.60
2023-03-22T08:18:19.418Z,12.60
2023-03-22T08:22:30.200Z,12.60
2023-03-22T08:26:39.921Z,12.60
2023-03-22T08:30:52.203Z,12.60
2023-03-22T08:35:01.210Z,12.70
2023-03-22T08:39:10.203Z,12.70
2023-03-22T08:43:19.317Z,12.80
2023-03-22T08:47:30.088Z,12.80
2023-03-22T08:51:39.478Z,12.80
2023-03-22T08:55:48.720Z,12.80
2023-03-22T08:59:58.048Z,12.80
2023-03-22T09:04:10.656Z,12.80
2023-03-22T09:08:20.188Z,12.90
2023-03-22T09:12:30.103Z,12.90
2023-03-22T09:16:39.316Z,12.90
2023-03-22T09:20:50.792Z,12.90
2023-03-22T09:24:59.977Z,13.00
2023-03-22T09:29:09.335Z,12.90
2023-03-22T09:33:18.790Z,13.00
2023-03-22T09:37:30.923Z,13.00
2023-03-22T09:41:42.910Z,12.90
2023-03-22T09:45:54.276Z,12.90
2023-03-22T09:50:09.358Z,12.90
2023-03-22T09:54:21.990Z,12.90
2023-03-22T09:58:35.615Z,12.90
2023-03-22T10:03:02.209Z,12.90
2023-03-22T10:07:27.560Z,13.00
2023-03-22T10:11:46.368Z,13.00
2023-03-22T10:15:59.935Z,13.00
2023-03-22T10:20:22.273Z,13.00
2023-03-22T10:24:35.327Z,13.00
2023-03-22T10:28:47.036Z,13.00
2023-03-22T10:33:02.057Z,13.10
2023-03-22T10:37:15.316Z,13.10
2023-03-22T10:41:26.977Z,13.10
2023-03-22T10:45:39.361Z,13.10
2023-03-22T10:49:55.208Z,13.00
2023-03-22T10:54:06.010Z,13.00
2023-03-22T10:58:16.887Z,13.00
2023-03-22T11:02:29.796Z,13.00
2023-03-22T11:06:44.646Z,13.00
2023-03-22T11:10:55.313Z,13.00
2023-03-22T11:15:04.976Z,13.00
2023-03-22T11:19:22.018Z,13.00
2023-03-22T11:23:35.492Z,13.00
2023-03-22T11:27:53.606Z,13.10
2023-03-22T11:32:06.229Z,13.10
2023-03-22T11:36:29.055Z,13.10
2023-03-22T11:40:39.551Z,13.10
2023-03-22T11:44:49.826Z,13.10
2023-03-22T11:49:02.075Z,13.20
2023-03-22T11:53:17.831Z,13.20
2023-03-22T11:57:30.604Z,13.20
2023-03-22T12:01:44.352Z,13.30
2023-03-22T12:05:56.054Z,13.40
2023-03-22T12:10:15.031Z,13.40
2023-03-22T12:14:29.644Z,13.30
2023-03-22T12:18:44.058Z,13.30
2023-03-22T12:22:56.559Z,13.30
2023-03-22T12:27:18.165Z,13.30
2023-03-22T12:31:33.725Z,13.30
2023-03-22T12:35:46.859Z,13.30
2023-03-22T12:40:01.193Z,13.30
2023-03-22T12:44:19.393Z,13.40
2023-03-22T12:48:38.033Z,13.50
2023-03-22T12:52:49.416Z,13.50
2023-03-22T12:56:58.924Z,13.50
2023-03-22T13:01:26.503Z,13.60
2023-03-22T13:05:38.210Z,13.60
2023-03-22T13:09:49.204Z,13.60
2023-03-22T13:13:58.361Z,13.60
2023-03-22T13:18:33.351Z,13.60
2023-03-22T13:23:01.893Z,13.80
2023-03-22T13:27:12.764Z,13.90
2023-03-22T13:31:39.843Z,13.90
2023-03-22T13:35:54.429Z,13.70
2023-03-22T13:40:13.571Z,13.60
2023-03-22T13:44:27.532Z,13.80
2023-03-22T13:48:52.626Z,14.20
2023-03-22T13:53:06.188Z,14.30
2023-03-22T13:57:39.095Z,14.20
2023-03-22T14:01:51.965Z,14.20
2023-03-22T14:06:09.847Z,14.20
2023-03-22T14:10:25.767Z,14.40
2023-03-22T14:14:41.907Z,14.50
2023-03-22T14:18:51.951Z,14.50
